createdAt,value
2024-03-09T00:05:01.995Z,4.79
2024-03-09T00:11:23.918Z,4.67
2024-03-09T00:17:44.139Z,4.61
2024-03-09T00:24:05.851Z,4.6
2024-03-09T00:30:25.853Z,4.54
2024-03-09T00:36:47.861Z,4.66
2024-03-09T00:43:08.199Z,4.67
2024-03-09T00:49:29.906Z,4.69
2024-03-09T00:55:49.875Z,4.73
2024-03-09T01:02:11.944Z,4.88
2024-03-09T01:08:31.873Z,5.07
2024-03-09T01:14:53.898Z,5.15
2024-03-09T01:21:13.829Z,5.17
2024-03-09T01:27:35.828Z,5.16
2024-03-09T01:33:55.872Z,5.18
2024-03-09T01:40:18.534Z,5.18
2024-03-09T01:46:37.828Z,5.19
2024-03-09T01:52:59.940Z,5.27
2024-03-09T01:59:19.873Z,5.37
2024-03-09T02:05:41.918Z,5.47
2024-03-09T02:12:02.016Z,5.49
2024-03-09T02:18:23.957Z,5.53
2024-03-09T02:24:43.925Z,5.59
2024-03-09T02:31:05.868Z,5.64
2024-03-09T02:37:25.905Z,5.65
2024-03-09T02:43:47.854Z,5.68
2024-03-09T02:50:07.942Z,5.73
2024-03-09T02:56:29.837Z,5.79
2024-03-09T03:02:49.923Z,5.82
2024-03-09T03:09:11.924Z,5.77
2024-03-09T03:15:31.879Z,5.78
2024-03-09T03:21:53.856Z,5.78
2024-03-09T03:28:13.928Z,5.74
2024-03-09T03:34:35.893Z,5.72
2024-03-09T03:40:55.847Z,5.68
2024-03-09T03:47:17.878Z,5.48
2024-03-09T03:53:37.835Z,5.43
2024-03-09T04:10:04.252Z,5.33
2024-03-09T04:16:23.793Z,5.37
2024-03-09T04:22:45.887Z,5.34
2024-03-09T04:29:05.930Z,5.28
2024-03-09T04:35:27.839Z,5.26
2024-03-09T04:41:47.809Z,5.2
2024-03-09T04:48:10.162Z,5.2
2024-03-09T04:54:29.939Z,5.13
2024-03-09T05:00:51.885Z,5.09
2024-03-09T05:07:11.912Z,5.15
2024-03-09T05:13:33.858Z,5.08
2024-03-09T05:19:54.159Z,5.07
2024-03-09T05:26:15.972Z,5.13
2024-03-09T05:32:35.802Z,5.11
2024-03-09T05:38:59.440Z,5.07
2024-03-09T05:45:17.927Z,5.05
2024-03-09T05:51:39.812Z,5.04
2024-03-09T05:57:59.863Z,5
2024-03-09T06:04:21.890Z,5.01
2024-03-09T06:10:44.036Z,4.97
2024-03-09T06:17:03.897Z,4.93
2024-03-09T06:23:23.939Z,4.89
2024-03-09T06:29:45.835Z,4.85
2024-03-09T06:36:05.912Z,4.88
2024-03-09T06:42:27.930Z,4.83
2024-03-09T06:48:47.827Z,4.82
2024-03-09T06:55:10.008Z,4.82
2024-03-09T07:01:29.993Z,4.97
2024-03-09T07:07:51.887Z,5.09
2024-03-09T07:14:11.960Z,5.15
2024-03-09T07:20:33.874Z,5.15
2024-03-09T07:26:53.880Z,5.15
2024-03-09T07:33:15.927Z,5.27
2024-03-09T07:39:35.962Z,5.48
2024-03-09T07:45:57.859Z,5.72
2024-03-09T07:52:17.843Z,5.86
2024-03-09T07:58:39.878Z,6.1
2024-03-09T08:04:59.885Z,6.43
2024-03-09T08:11:21.873Z,6.67
2024-03-09T08:17:41.853Z,6.84
2024-03-09T08:24:03.867Z,7.14
2024-03-09T08:30:23.863Z,7.36
2024-03-09T08:36:45.894Z,7.52
2024-03-09T08:43:05.855Z,7.8
2024-03-09T08:49:27.856Z,8.04
2024-03-09T08:55:47.925Z,8.24
2024-03-09T09:18:50.973Z,9.33
2024-03-09T09:25:12.794Z,9.57
2024-03-09T09:31:32.867Z,9.61
2024-03-09T09:37:54.902Z,9.88
2024-03-09T09:44:14.886Z,9.9
2024-03-09T09:50:37.122Z,10.34
2024-03-09T09:56:57.326Z,10.72
2024-03-09T10:03:18.812Z,10.97
2024-03-09T10:09:38.796Z,11.21
2024-03-09T10:16:00.869Z,11.38
2024-03-09T10:22:20.801Z,11.88
2024-03-09T10:28:42.860Z,12.09
2024-03-09T10:35:02.876Z,12.43
2024-03-09T10:41:24.910Z,12.62
2024-03-09T10:47:44.789Z,12.98
2024-03-09T10:54:06.876Z,12.89
2024-03-09T11:00:26.819Z,13.07
2024-03-09T11:06:48.791Z,13.56
2024-03-09T11:13:08.908Z,13.49
2024-03-09T11:19:30.859Z,13.71
2024-03-09T11:25:50.868Z,13.87
2024-03-09T11:32:12.938Z,14.27
2024-03-09T11:38:32.816Z,14.4
2024-03-09T11:44:54.848Z,14.8
2024-03-09T11:51:14.836Z,14.93
2024-03-09T11:57:36.842Z,15.24
2024-03-09T12:03:56.800Z,15.45
2024-03-09T12:10:18.856Z,15.86
2024-03-09T12:16:38.840Z,15.91
2024-03-09T12:23:00.822Z,16.71
2024-03-09T12:29:20.897Z,16.62
2024-03-09T12:35:42.792Z,16.59
2024-03-09T12:42:02.915Z,16.63
2024-03-09T12:48:24.872Z,16.95
2024-03-09T12:54:44.850Z,17.17
2024-03-09T13:01:06.829Z,17.3
2024-03-09T13:07:26.836Z,17.22
2024-03-09T13:13:48.951Z,17.27
2024-03-09T13:20:08.849Z,17.88
2024-03-09T13:26:30.862Z,17.87
2024-03-09T13:32:50.823Z,18.49
2024-03-09T13:39:12.824Z,17.67
2024-03-09T13:45:32.857Z,17.17
2024-03-09T13:51:56.435Z,17.74
2024-03-09T13:58:14.832Z,18.23
2024-03-09T14:04:36.861Z,18.21
2024-03-09T14:10:56.882Z,18.97
2024-03-09T14:17:18.830Z,19.16
2024-03-09T14:23:38.861Z,19.27
2024-03-09T14:30:01.171Z,19.21
2024-03-09T14:47:12.838Z,18.16
2024-03-09T14:53:33.783Z,17.91
2024-03-09T14:59:53.829Z,17.92
2024-03-09T15:06:15.849Z,17.52
2024-03-09T15:12:35.795Z,16.82
2024-03-09T15:18:57.881Z,16.67
2024-03-09T15:25:17.865Z,16.63
2024-03-09T15:31:40.069Z,16.61
2024-03-09T15:37:59.838Z,16.35
2024-03-09T15:44:23.069Z,16.02
2024-03-09T15:50:41.800Z,15.79
2024-03-09T15:57:03.845Z,15.37
2024-03-09T16:03:23.835Z,15.19
2024-03-09T16:09:45.811Z,14.98
2024-03-09T16:16:05.791Z,14.84
2024-03-09T16:22:27.940Z,14.6
2024-03-09T16:28:47.798Z,14.48
2024-03-09T16:35:09.863Z,14.36
2024-03-09T16:41:29.961Z,14.25
2024-03-09T16:47:51.849Z,14.03
2024-03-09T16:54:11.827Z,13.87
2024-03-09T17:00:33.859Z,13.71
2024-03-09T17:06:56.221Z,13.6
2024-03-09T17:13:15.810Z,13.53
2024-03-09T17:19:36.047Z,13.4
2024-03-09T17:25:57.813Z,13.31
2024-03-09T17:32:17.864Z,13.21
2024-03-09T17:38:39.888Z,13.08
2024-03-09T17:44:59.841Z,12.93
2024-03-09T17:51:21.790Z,12.86
2024-03-09T17:57:41.910Z,12.78
2024-03-09T18:04:03.825Z,12.74
2024-03-09T18:10:23.824Z,12.73
2024-03-09T18:16:45.911Z,12.65
2024-03-09T18:23:05.817Z,12.7
2024-03-09T18:29:27.861Z,12.68
2024-03-09T18:35:48.400Z,12.59
2024-03-09T18:42:09.866Z,12.45
2024-03-09T18:48:29.850Z,12.37
2024-03-09T18:54:51.872Z,12.35
2024-03-09T19:01:11.839Z,12.23
2024-03-09T19:07:33.787Z,12.2
2024-03-09T19:13:53.888Z,12.19
2024-03-09T19:20:17.514Z,12.09
2024-03-09T19:26:35.822Z,12.05
2024-03-09T19:32:58.473Z,11.9
2024-03-09T19:50:24.127Z,11.48
2024-03-09T19:56:44.795Z,11.34
2024-03-09T20:03:04.780Z,11.19
2024-03-09T20:09:26.857Z,11.12
2024-03-09T20:15:46.889Z,11.02
2024-03-09T20:22:08.814Z,10.96
2024-03-09T20:28:28.861Z,10.93
2024-03-09T20:34:50.855Z,10.9
2024-03-09T20:41:10.798Z,10.82
2024-03-09T20:47:32.927Z,10.86
2024-03-09T20:53:52.815Z,10.84
2024-03-09T21:00:14.845Z,10.75
2024-03-09T21:06:34.998Z,10.72
2024-03-09T21:12:56.870Z,10.67
2024-03-09T21:19:16.813Z,10.57
2024-03-09T21:25:38.897Z,10.54
2024-03-09T21:31:58.831Z,10.45
2024-03-09T21:38:20.861Z,10.38
2024-03-09T21:44:40.853Z,10.27
2024-03-09T21:51:06.741Z,10.26
2024-03-09T21:57:22.884Z,10.23
2024-03-09T22:03:44.833Z,10.19
2024-03-09T22:10:04.788Z,10.19
2024-03-09T22:16:26.822Z,10.11
2024-03-09T22:22:46.963Z,10.02
2024-03-09T22:29:08.854Z,9.93
2024-03-09T22:35:28.881Z,9.87
2024-03-09T22:41:50.872Z,9.77
2024-03-09T22:48:10.884Z,9.66
2024-03-09T22:54:32.801Z,9.62
2024-03-09T23:20:04.076Z,9.13
2024-03-09T23:26:23.886Z,9.14
2024-03-09T23:32:45.852Z,9.18
2024-03-09T23:39:06.059Z,9.21
2024-03-09T23:45:27.783Z,9.29
2024-03-09T23:51:47.853Z,9.26
2024-03-09T23:58:09.874Z,9.13
